Flight Track Log - Related Links

Times and Time Zones

All times are in EDT time to prevent confusion due to time zone crossing. See the GLA195 flight status page for this flight to view local times or setup timezone preferences in your user account.


Time Position Orientation Groundspeed Altitude Reporting Facility
EDT Latitude Longitude Course Direction KTS MPH feet Rate Location/Type
Sun 05:44:58 PM 46.4381 -90.2086 198° South 175 201 7,100  Level Minneapolis Center
Sun 05:46:00 PM 46.3831 -90.2575 212° Southwest 192 221 9,600 2,129 Climbing Minneapolis Center
Sun 05:47:02 PM 46.3331 -90.3019 212° Southwest 206 237 11,500 1,839 Climbing Minneapolis Center
Sun 05:48:04 PM 46.2844 -90.3508 215° Southwest 213 245 13,400 1,742 Climbing Minneapolis Center
Sun 05:49:06 PM 46.2264 -90.3906 205° Southwest 224 258 15,100 1,258 Climbing Minneapolis Center
Sun 05:50:08 PM 46.1628 -90.4336 205° Southwest 247 284 16,000 435 Climbing Minneapolis Center
Sun 05:51:10 PM 46.0944 -90.4839 207° Southwest 267 307 16,000  Level Minneapolis Center
Sun 05:52:12 PM 46.0058 -90.5508 208° Southwest 292 336 16,000 -48 Level Minneapolis Center
Sun 05:53:14 PM 45.9331 -90.6014 206° Southwest 295 339 15,900  Descending Minneapolis Center
Sun 05:54:16 PM 45.8594 -90.6636 210° Southwest 303 349 16,000 97 Climbing Minneapolis Center
Sun 05:55:18 PM 45.8019 -90.7461 225° Southwest 300 345 16,100  Climbing Minneapolis Center
Sun 05:56:20 PM 45.7444 -90.8308 226° Southwest 297 342 16,000 -48 Descending Minneapolis Center
Sun 05:57:22 PM 45.6875 -90.9169 227° Southwest 300 345 16,000  Level Minneapolis Center
Sun 05:58:24 PM 45.6192 -91.0181 226° Southwest 296 341 16,000 48 Level Minneapolis Center
Sun 05:59:26 PM 45.5636 -91.1058 228° Southwest 298 343 16,100  Climbing Minneapolis Center
Sun 06:00:28 PM 45.5133 -91.1967 232° Southwest 296 341 16,000  Descending Minneapolis Center
Sun 06:01:31 PM 45.4628 -91.2856 231° Southwest 293 337 16,100  Climbing Minneapolis Center
Sun 06:02:45 PM 45.4108 -91.3731 230° Southwest 290 334 16,000 -88 Descending Minneapolis Center
Sun 06:03:47 PM 45.3511 -91.4831 232° Southwest 292 336 15,900 -387 Descending Minneapolis Center
Sun 06:04:49 PM 45.2914 -91.5997 234° Southwest 299 344 15,200 -774 Descending Minneapolis Center
Sun 06:05:51 PM 45.2400 -91.6981 233° Southwest 305 351 14,300 -1,016 Descending Minneapolis Center
Sun 06:06:53 PM 45.1867 -91.7992 233° Southwest 315 362 13,100 -1,065 Descending Minneapolis Center
Sun 06:07:55 PM 45.1394 -91.8994 236° Southwest 308 354 12,100 -1,065 Descending Minneapolis Center
Sun 06:08:57 PM 45.1019 -92.0039 243° Southwest 301 346 10,900 -1,452 Descending Minneapolis Center
Sun 06:09:59 PM 45.0772 -92.1364 255° West 291 335 9,100 -1,588 Descending Minneapolis Center
Sun 06:11:13 PM 45.0583 -92.2431 256° West 281 323 7,300 -920 Descending Minneapolis Center
Sun 06:12:16 PM 45.0358 -92.3631 255° West 267 307 7,000 -288 Descending Minneapolis Center
Sun 06:13:18 PM 45.0175 -92.4650 256° West 268 308 6,700 -726 Descending Minneapolis Center
Sun 06:14:20 PM 44.9894 -92.5572 247° West 258 297 5,500 -1,113 Descending Minneapolis Center
Sun 06:15:22 PM 44.9472 -92.6356 233° Southwest 252 290 4,400 -774 Descending Minneapolis Center
Sun 06:16:24 PM 44.9103 -92.7389 243° Southwest 246 283 3,900 -194 Descending Minneapolis Center
Sun 06:17:26 PM 44.8778 -92.8206 241° Southwest 241 277 4,000  Climbing Minneapolis Center
Sun 06:18:29 PM 44.8433 -92.9069 241° Southwest 251 289 3,900 -48 Descending Minneapolis Center
Sun 06:19:31 PM 44.8472 -92.9969 274° West 233 268 3,900 -439 Level Minneapolis Center
Sun 06:20:32 PM 44.8531 -93.0672 277° West 229 264 3,000 -1,258 Descending Minneapolis Center
Sun 06:21:35 PM 44.8694 -93.1672 283° West 169 194 1,300 -1,619 Descending Minneapolis Center
Sun 06:23:00 PM 44.8667 -93.2167 245° Southwest  Level FlightAware Approximate
Sun 06:30:00 PM 44.8820 -93.2218 245° Southwest  Level Estimated
Sun 06:31:00 PM 44.8820 -93.2218 245° Southwest  Level Estimated

Login

Don't have an account? Register now (free) for customized features, flight alerts, and more!